sensor_id;sensor_type;location;lat;lon;timestamp;pressure;altitude;pressure_sealevel;temperature;humidity
10099;BME280;5089;42.656;23.374;2023-02-07T00:01:28;96039.19;;;-0.34;52.91
10099;BME280;5089;42.656;23.374;2023-02-07T00:03:56;96124.31;;;0.22;52.53
10099;BME280;5089;42.656;23.374;2023-02-07T00:06:25;96118.66;;;0.25;52.96
10099;BME280;5089;42.656;23.374;2023-02-07T00:08:52;96120.31;;;0.26;52.91
10099;BME280;5089;42.656;23.374;2023-02-07T00:11:20;96117.66;;;0.26;52.30
10099;BME280;5089;42.656;23.374;2023-02-07T00:13:52;96113.00;;;0.28;51.92
10099;BME280;5089;42.656;23.374;2023-02-07T00:16:20;96133.94;;;0.37;51.57
10099;BME280;5089;42.656;23.374;2023-02-07T00:18:47;96156.19;;;0.43;51.67
10099;BME280;5089;42.656;23.374;2023-02-07T00:21:16;96151.22;;;0.48;52.15
10099;BME280;5089;42.656;23.374;2023-02-07T00:23:43;96151.22;;;0.48;52.26
10099;BME280;5089;42.656;23.374;2023-02-07T00:26:11;96140.88;;;0.38;52.21
10099;BME280;5089;42.656;23.374;2023-02-07T00:28:39;96157.50;;;0.47;52.44
10099;BME280;5089;42.656;23.374;2023-02-07T00:31:10;96153.19;;;0.46;52.28
10099;BME280;5089;42.656;23.374;2023-02-07T00:33:38;96173.19;;;0.48;51.68
10099;BME280;5089;42.656;23.374;2023-02-07T00:36:07;96170.72;;;0.47;52.32
10099;BME280;5089;42.656;23.374;2023-02-07T00:38:34;96180.59;;;0.53;52.32
10099;BME280;5089;42.656;23.374;2023-02-07T00:41:01;96167.13;;;0.40;52.38
10099;BME280;5089;42.656;23.374;2023-02-07T00:43:29;96174.72;;;0.43;52.77
10099;BME280;5089;42.656;23.374;2023-02-07T00:45:56;96172.72;;;0.45;53.02
10099;BME280;5089;42.656;23.374;2023-02-07T00:48:26;96178.03;;;0.45;53.28
10099;BME280;5089;42.656;23.374;2023-02-07T00:50:53;96140.63;;;0.25;53.11
10099;BME280;5089;42.656;23.374;2023-02-07T00:53:20;96172.19;;;0.49;53.09
10099;BME280;5089;42.656;23.374;2023-02-07T00:55:47;96168.78;;;0.41;52.99
10099;BME280;5089;42.656;23.374;2023-02-07T00:58:14;96124.88;;;0.09;53.72
10099;BME280;5089;42.656;23.374;2023-02-07T01:00:41;96138.53;;;0.21;53.71
10099;BME280;5089;42.656;23.374;2023-02-07T01:03:08;96141.53;;;0.18;53.41
10099;BME280;5089;42.656;23.374;2023-02-07T01:05:36;96124.25;;;0.07;53.47
10099;BME280;5089;42.656;23.374;2023-02-07T01:08:03;96167.69;;;0.35;54.02
10099;BME280;5089;42.656;23.374;2023-02-07T01:10:31;96107.75;;;0.05;52.86
10099;BME280;5089;42.656;23.374;2023-02-07T01:12:58;96163.22;;;0.36;53.21
10099;BME280;5089;42.656;23.374;2023-02-07T01:15:25;96125.69;;;0.18;53.52
10099;BME280;5089;42.656;23.374;2023-02-07T01:17:52;96172.84;;;0.29;53.88
10099;BME280;5089;42.656;23.374;2023-02-07T01:20:19;96179.78;;;0.30;53.54
10099;BME280;5089;42.656;23.374;2023-02-07T01:22:48;96088.94;;;-0.23;54.86
10099;BME280;5089;42.656;23.374;2023-02-07T01:25:15;96144.81;;;0.20;54.66
10099;BME280;5089;42.656;23.374;2023-02-07T01:27:42;96147.09;;;0.23;54.15
10099;BME280;5089;42.656;23.374;2023-02-07T01:30:10;96136.25;;;0.18;53.72
10099;BME280;5089;42.656;23.374;2023-02-07T01:32:38;96070.31;;;-0.21;54.09
10099;BME280;5089;42.656;23.374;2023-02-07T01:35:06;96127.38;;;0.11;54.10
10099;BME280;5089;42.656;23.374;2023-02-07T01:37:33;96148.84;;;0.30;54.48
10099;BME280;5089;42.656;23.374;2023-02-07T01:40:02;96145.69;;;0.35;54.50
10099;BME280;5089;42.656;23.374;2023-02-07T01:42:29;96149.81;;;0.37;54.62
10099;BME280;5089;42.656;23.374;2023-02-07T01:45:07;96153.09;;;0.39;53.95
10099;BME280;5089;42.656;23.374;2023-02-07T01:47:38;96145.97;;;0.40;54.32
10099;BME280;5089;42.656;23.374;2023-02-07T01:50:06;96145.81;;;0.41;54.31
10099;BME280;5089;42.656;23.374;2023-02-07T01:52:36;96130.78;;;0.42;53.98
10099;BME280;5089;42.656;23.374;2023-02-07T01:55:08;96104.16;;;0.21;53.92
10099;BME280;5089;42.656;23.374;2023-02-07T01:57:36;96116.56;;;0.20;54.55
10099;BME280;5089;42.656;23.374;2023-02-07T02:00:04;96139.69;;;0.41;54.95
10099;BME280;5089;42.656;23.374;2023-02-07T02:02:34;96106.00;;;0.20;54.97
10099;BME280;5089;42.656;23.374;2023-02-07T02:05:02;96134.41;;;0.41;54.74
10099;BME280;5089;42.656;23.374;2023-02-07T02:07:30;96145.09;;;0.47;54.12
10099;BME280;5089;42.656;23.374;2023-02-07T02:09:58;96101.81;;;0.26;54.51
10099;BME280;5089;42.656;23.374;2023-02-07T02:12:41;96119.31;;;0.27;54.54
10099;BME280;5089;42.656;23.374;2023-02-07T02:15:18;96121.91;;;0.35;54.75
10099;BME280;5089;42.656;23.374;2023-02-07T02:18:00;96147.63;;;0.41;54.65
10099;BME280;5089;42.656;23.374;2023-02-07T02:21:07;96147.34;;;0.36;54.95
10099;BME280;5089;42.656;23.374;2023-02-07T02:23:43;96154.81;;;0.32;55.36
10099;BME280;5089;42.656;23.374;2023-02-07T02:26:40;96144.63;;;0.21;56.03
10099;BME280;5089;42.656;23.374;2023-02-07T02:32:43;96139.06;;;0.16;55.87
10099;BME280;5089;42.656;23.374;2023-02-07T02:35:20;96148.53;;;0.11;55.83
10099;BME280;5089;42.656;23.374;2023-02-07T02:37:53;96137.88;;;0.19;55.64
10099;BME280;5089;42.656;23.374;2023-02-07T02:40:27;96160.63;;;0.28;55.46
10099;BME280;5089;42.656;23.374;2023-02-07T02:42:59;96159.00;;;0.27;54.87
10099;BME280;5089;42.656;23.374;2023-02-07T02:45:32;96176.47;;;0.28;54.61
10099;BME280;5089;42.656;23.374;2023-02-07T02:48:05;96157.56;;;0.16;55.51
10099;BME280;5089;42.656;23.374;2023-02-07T02:50:33;96163.03;;;0.15;55.80
10099;BME280;5089;42.656;23.374;2023-02-07T02:53:01;96088.00;;;-0.30;55.46
10099;BME280;5089;42.656;23.374;2023-02-07T02:55:44;96141.28;;;0.05;55.10
10099;BME280;5089;42.656;23.374;2023-02-07T02:58:25;96072.88;;;-0.67;55.51
10099;BME280;5089;42.656;23.374;2023-02-07T03:01:05;96162.84;;;-0.07;55.57
10099;BME280;5089;42.656;23.374;2023-02-07T03:03:47;96173.28;;;0.10;54.97
10099;BME280;5089;42.656;23.374;2023-02-07T03:06:32;96161.47;;;-0.03;55.18
10099;BME280;5089;42.656;23.374;2023-02-07T03:09:07;96163.00;;;-0.08;56.24
10099;BME280;5089;42.656;23.374;2023-02-07T03:11:48;96179.28;;;0.04;55.52
10099;BME280;5089;42.656;23.374;2023-02-07T03:14:22;96180.66;;;-0.09;55.91
10099;BME280;5089;42.656;23.374;2023-02-07T03:16:57;96154.84;;;-0.21;55.78
10099;BME280;5089;42.656;23.374;2023-02-07T03:19:30;96084.63;;;-0.77;56.17
10099;BME280;5089;42.656;23.374;2023-02-07T03:21:59;96114.66;;;-0.70;55.19
10099;BME280;5089;42.656;23.374;2023-02-07T03:24:30;96176.19;;;-0.31;55.65
10099;BME280;5089;42.656;23.374;2023-02-07T03:26:59;96140.41;;;-0.41;55.90
10099;BME280;5089;42.656;23.374;2023-02-07T03:29:29;96154.44;;;-0.41;55.50
10099;BME280;5089;42.656;23.374;2023-02-07T03:31:59;96135.78;;;-0.39;55.17
10099;BME280;5089;42.656;23.374;2023-02-07T03:34:34;96169.25;;;-0.32;55.46
10099;BME280;5089;42.656;23.374;2023-02-07T03:37:07;96178.28;;;-0.18;55.19
10099;BME280;5089;42.656;23.374;2023-02-07T03:39:36;96185.38;;;-0.19;55.49
10099;BME280;5089;42.656;23.374;2023-02-07T03:42:06;96156.00;;;-0.24;55.55
10099;BME280;5089;42.656;23.374;2023-02-07T03:44:34;96174.47;;;-0.16;55.36
10099;BME280;5089;42.656;23.374;2023-02-07T03:47:03;96173.94;;;-0.11;54.69
10099;BME280;5089;42.656;23.374;2023-02-07T03:49:31;96107.31;;;-0.60;54.26
10099;BME280;5089;42.656;23.374;2023-02-07T03:51:58;96184.00;;;-0.07;54.38
10099;BME280;5089;42.656;23.374;2023-02-07T03:54:26;96110.88;;;-0.45;54.50
10099;BME280;5089;42.656;23.374;2023-02-07T03:56:56;96136.38;;;-0.29;54.22
10099;BME280;5089;42.656;23.374;2023-02-07T03:59:37;96128.31;;;-0.36;54.67
10099;BME280;5089;42.656;23.374;2023-02-07T04:02:04;96175.03;;;-0.06;54.85
10099;BME280;5089;42.656;23.374;2023-02-07T04:04:33;96170.34;;;-0.18;55.04
10099;BME280;5089;42.656;23.374;2023-02-07T04:07:00;96158.13;;;-0.19;54.40
10099;BME280;5089;42.656;23.374;2023-02-07T04:09:28;96122.09;;;-0.43;53.88
10099;BME280;5089;42.656;23.374;2023-02-07T04:11:55;96176.69;;;-0.05;54.18
10099;BME280;5089;42.656;23.374;2023-02-07T04:14:21;96168.59;;;-0.03;54.13
10099;BME280;5089;42.656;23.374;2023-02-07T04:16:48;96154.94;;;-0.15;54.15
10099;BME280;5089;42.656;23.374;2023-02-07T04:19:16;96165.78;;;-0.02;54.17
10099;BME280;5089;42.656;23.374;2023-02-07T04:21:44;96169.53;;;0.04;53.65
10099;BME280;5089;42.656;23.374;2023-02-07T04:24:11;96191.16;;;0.08;53.82
10099;BME280;5089;42.656;23.374;2023-02-07T04:26:38;96166.75;;;0.06;53.45
10099;BME280;5089;42.656;23.374;2023-02-07T04:29:07;96167.84;;;0.11;53.76
10099;BME280;5089;42.656;23.374;2023-02-07T04:31:34;96147.56;;;0.04;54.66
10099;BME280;5089;42.656;23.374;2023-02-07T04:34:02;96173.63;;;0.15;54.17
10099;BME280;5089;42.656;23.374;2023-02-07T04:36:30;96158.81;;;0.06;54.51
10099;BME280;5089;42.656;23.374;2023-02-07T04:38:59;96168.72;;;0.04;53.12
10099;BME280;5089;42.656;23.374;2023-02-07T04:41:26;96117.38;;;-0.25;53.65
10099;BME280;5089;42.656;23.374;2023-02-07T04:43:53;96177.41;;;-0.11;53.58
10099;BME280;5089;42.656;23.374;2023-02-07T04:46:22;96138.97;;;-0.52;53.81
10099;BME280;5089;42.656;23.374;2023-02-07T04:48:49;96101.84;;;-0.89;53.81
10099;BME280;5089;42.656;23.374;2023-02-07T04:51:16;96158.34;;;-0.29;54.34
10099;BME280;5089;42.656;23.374;2023-02-07T04:53:43;96152.84;;;-0.19;53.60
10099;BME280;5089;42.656;23.374;2023-02-07T04:56:11;96154.50;;;-0.18;54.18
10099;BME280;5089;42.656;23.374;2023-02-07T04:58:38;96204.09;;;0.03;54.64
10099;BME280;5089;42.656;23.374;2023-02-07T05:01:05;96194.78;;;0.07;54.17
10099;BME280;5089;42.656;23.374;2023-02-07T05:03:32;96158.59;;;-0.16;54.64
10099;BME280;5089;42.656;23.374;2023-02-07T05:05:59;96136.16;;;-0.20;54.71
10099;BME280;5089;42.656;23.374;2023-02-07T05:08:26;96198.69;;;0.19;55.00
10099;BME280;5089;42.656;23.374;2023-02-07T05:11:00;96198.34;;;0.22;54.78
10099;BME280;5089;42.656;23.374;2023-02-07T05:13:29;96195.28;;;0.10;55.23
10099;BME280;5089;42.656;23.374;2023-02-07T05:15:56;96208.09;;;0.21;54.61
10099;BME280;5089;42.656;23.374;2023-02-07T05:18:23;96209.88;;;0.29;55.35
10099;BME280;5089;42.656;23.374;2023-02-07T05:20:52;96206.38;;;0.28;54.18
10099;BME280;5089;42.656;23.374;2023-02-07T05:23:19;96210.56;;;0.23;54.19
10099;BME280;5089;42.656;23.374;2023-02-07T05:25:46;96188.56;;;-0.01;54.84
10099;BME280;5089;42.656;23.374;2023-02-07T05:28:14;96214.41;;;0.12;54.81
10099;BME280;5089;42.656;23.374;2023-02-07T05:30:43;96221.72;;;0.10;55.53
10099;BME280;5089;42.656;23.374;2023-02-07T05:33:11;96212.94;;;0.10;55.86
10099;BME280;5089;42.656;23.374;2023-02-07T05:35:38;96208.19;;;0.05;55.99
10099;BME280;5089;42.656;23.374;2023-02-07T05:38:07;96168.16;;;-0.15;55.57
10099;BME280;5089;42.656;23.374;2023-02-07T05:40:37;96235.75;;;0.11;55.44
10099;BME280;5089;42.656;23.374;2023-02-07T05:43:13;96220.53;;;0.13;55.34
10099;BME280;5089;42.656;23.374;2023-02-07T05:45:45;96239.09;;;0.05;55.56
10099;BME280;5089;42.656;23.374;2023-02-07T05:48:15;96243.06;;;0.00;55.67
10099;BME280;5089;42.656;23.374;2023-02-07T05:50:42;96207.22;;;-0.33;55.72
10099;BME280;5089;42.656;23.374;2023-02-07T05:53:09;96217.22;;;-0.12;55.95
10099;BME280;5089;42.656;23.374;2023-02-07T05:55:39;96190.09;;;-0.45;55.95
10099;BME280;5089;42.656;23.374;2023-02-07T05:58:08;96257.31;;;-0.09;55.41
10099;BME280;5089;42.656;23.374;2023-02-07T06:00:35;96251.09;;;-0.24;55.90
10099;BME280;5089;42.656;23.374;2023-02-07T06:03:03;96237.72;;;-0.22;55.79
10099;BME280;5089;42.656;23.374;2023-02-07T06:05:30;96202.66;;;-0.47;55.51
10099;BME280;5089;42.656;23.374;2023-02-07T06:07:58;96248.09;;;-0.13;56.13
10099;BME280;5089;42.656;23.374;2023-02-07T06:10:28;96251.38;;;-0.11;55.63
10099;BME280;5089;42.656;23.374;2023-02-07T06:13:03;96122.28;;;-0.83;55.75
10099;BME280;5089;42.656;23.374;2023-02-07T06:15:50;96239.16;;;-0.12;55.93
10099;BME280;5089;42.656;23.374;2023-02-07T06:18:27;96260.03;;;-0.25;56.35
10099;BME280;5089;42.656;23.374;2023-02-07T06:20:57;96221.75;;;-0.29;56.46
10099;BME280;5089;42.656;23.374;2023-02-07T06:26:23;96163.78;;;-0.61;56.10
10099;BME280;5089;42.656;23.374;2023-02-07T06:28:50;96163.78;;;-0.61;55.75
10099;BME280;5089;42.656;23.374;2023-02-07T06:31:23;96173.72;;;-0.71;55.39
10099;BME280;5089;42.656;23.374;2023-02-07T06:33:52;96227.72;;;-0.35;55.21
10099;BME280;5089;42.656;23.374;2023-02-07T06:36:34;96257.34;;;-0.17;55.94
10099;BME280;5089;42.656;23.374;2023-02-07T06:39:01;96261.13;;;-0.11;56.21
10099;BME280;5089;42.656;23.374;2023-02-07T06:41:28;96244.63;;;-0.13;55.77
10099;BME280;5089;42.656;23.374;2023-02-07T06:43:55;96268.56;;;-0.07;55.43
10099;BME280;5089;42.656;23.374;2023-02-07T06:46:22;96259.31;;;-0.11;54.78
10099;BME280;5089;42.656;23.374;2023-02-07T06:48:49;96283.38;;;0.03;55.01
10099;BME280;5089;42.656;23.374;2023-02-07T06:51:17;96279.38;;;0.07;54.34
10099;BME280;5089;42.656;23.374;2023-02-07T06:53:44;96251.34;;;-0.03;54.28
10099;BME280;5089;42.656;23.374;2023-02-07T06:56:11;96235.38;;;-0.17;54.40
10099;BME280;5089;42.656;23.374;2023-02-07T06:58:38;96290.56;;;0.17;54.21
10099;BME280;5089;42.656;23.374;2023-02-07T07:01:05;96293.84;;;0.19;54.27
10099;BME280;5089;42.656;23.374;2023-02-07T07:03:32;96236.50;;;-0.04;54.39
10099;BME280;5089;42.656;23.374;2023-02-07T07:05:59;96222.97;;;-0.09;54.36
10099;BME280;5089;42.656;23.374;2023-02-07T07:08:28;96254.66;;;-0.01;54.83
10099;BME280;5089;42.656;23.374;2023-02-07T07:10:55;96202.25;;;-0.28;54.86
10099;BME280;5089;42.656;23.374;2023-02-07T07:13:23;96263.38;;;0.08;54.57
10099;BME280;5089;42.656;23.374;2023-02-07T07:15:50;96203.97;;;-0.43;54.65
10099;BME280;5089;42.656;23.374;2023-02-07T07:18:17;96231.31;;;0.03;54.28
10099;BME280;5089;42.656;23.374;2023-02-07T07:20:44;96277.09;;;0.34;53.98
10099;BME280;5089;42.656;23.374;2023-02-07T07:23:11;96261.78;;;0.22;53.82
10099;BME280;5089;42.656;23.374;2023-02-07T07:25:39;96182.16;;;-0.37;53.97
10099;BME280;5089;42.656;23.374;2023-02-07T07:28:06;96258.03;;;0.16;53.70
10099;BME280;5089;42.656;23.374;2023-02-07T07:30:33;96277.31;;;0.25;53.44
10099;BME280;5089;42.656;23.374;2023-02-07T07:33:00;96265.66;;;0.11;53.29
10099;BME280;5089;42.656;23.374;2023-02-07T07:35:27;96276.47;;;0.24;53.85
10099;BME280;5089;42.656;23.374;2023-02-07T07:37:54;96278.31;;;0.24;53.20
10099;BME280;5089;42.656;23.374;2023-02-07T07:40:21;96214.53;;;-0.04;52.48
10099;BME280;5089;42.656;23.374;2023-02-07T07:42:49;96278.31;;;0.24;53.21
10099;BME280;5089;42.656;23.374;2023-02-07T07:45:16;96262.75;;;0.29;53.04
10099;BME280;5089;42.656;23.374;2023-02-07T07:47:44;96243.75;;;0.25;52.63
10099;BME280;5089;42.656;23.374;2023-02-07T07:50:11;96274.41;;;0.65;52.17
10099;BME280;5089;42.656;23.374;2023-02-07T07:52:38;96219.44;;;0.52;52.13
10099;BME280;5089;42.656;23.374;2023-02-07T07:55:05;96224.31;;;0.41;52.07
10099;BME280;5089;42.656;23.374;2023-02-07T07:57:32;96280.16;;;0.91;52.09
10099;BME280;5089;42.656;23.374;2023-02-07T08:00:02;96271.66;;;1.19;50.84
10099;BME280;5089;42.656;23.374;2023-02-07T08:02:29;96270.91;;;1.33;50.47
10099;BME280;5089;42.656;23.374;2023-02-07T08:04:56;96261.03;;;1.41;49.29
10099;BME280;5089;42.656;23.374;2023-02-07T08:07:22;96266.97;;;1.58;49.97
10099;BME280;5089;42.656;23.374;2023-02-07T08:09:49;96268.09;;;1.78;49.38
10099;BME280;5089;42.656;23.374;2023-02-07T08:12:16;96244.97;;;1.87;49.45
10099;BME280;5089;42.656;23.374;2023-02-07T08:14:43;96250.03;;;2.03;48.81
10099;BME280;5089;42.656;23.374;2023-02-07T08:17:11;96261.28;;;2.19;48.28
10099;BME280;5089;42.656;23.374;2023-02-07T08:19:38;96198.53;;;2.27;47.13
10099;BME280;5089;42.656;23.374;2023-02-07T08:22:05;96228.47;;;2.63;46.81
10099;BME280;5089;42.656;23.374;2023-02-07T08:24:32;96259.78;;;3.10;46.25
10099;BME280;5089;42.656;23.374;2023-02-07T08:27:00;96240.53;;;3.36;45.46
10099;BME280;5089;42.656;23.374;2023-02-07T08:29:27;96258.31;;;3.63;44.56
10099;BME280;5089;42.656;23.374;2023-02-07T08:31:54;96264.09;;;4.01;43.22
10099;BME280;5089;42.656;23.374;2023-02-07T08:34:22;96222.97;;;4.64;49.36
10099;BME280;5089;42.656;23.374;2023-02-07T08:36:51;96248.03;;;5.68;67.67
10099;BME280;5089;42.656;23.374;2023-02-07T08:39:18;96249.59;;;6.08;47.44
10099;BME280;5089;42.656;23.374;2023-02-07T08:41:45;96224.53;;;6.16;44.48
10099;BME280;5089;42.656;23.374;2023-02-07T08:44:12;96213.84;;;6.16;38.49
10099;BME280;5089;42.656;23.374;2023-02-07T08:46:39;96244.06;;;6.03;38.25
10099;BME280;5089;42.656;23.374;2023-02-07T08:49:06;96256.63;;;5.63;37.93
10099;BME280;5089;42.656;23.374;2023-02-07T08:51:35;96260.75;;;5.33;38.18
10099;BME280;5089;42.656;23.374;2023-02-07T08:54:02;96255.38;;;4.93;39.17
10099;BME280;5089;42.656;23.374;2023-02-07T08:56:29;96256.13;;;4.55;39.57
10099;BME280;5089;42.656;23.374;2023-02-07T08:58:56;96257.31;;;4.46;40.16
10099;BME280;5089;42.656;23.374;2023-02-07T09:01:23;96253.63;;;4.40;40.15
10099;BME280;5089;42.656;23.374;2023-02-07T09:03:53;96257.88;;;4.28;40.66
10099;BME280;5089;42.656;23.374;2023-02-07T09:06:21;96226.34;;;3.84;40.38
10099;BME280;5089;42.656;23.374;2023-02-07T09:08:49;96248.81;;;3.81;41.17
10099;BME280;5089;42.656;23.374;2023-02-07T09:11:18;96266.22;;;3.84;41.96
10099;BME280;5089;42.656;23.374;2023-02-07T09:13:45;96275.03;;;3.84;40.89
10099;BME280;5089;42.656;23.374;2023-02-07T09:16:13;96245.34;;;3.47;41.42
10099;BME280;5089;42.656;23.374;2023-02-07T09:18:40;96239.88;;;3.27;43.43
10099;BME280;5089;42.656;23.374;2023-02-07T09:21:07;96267.28;;;3.27;43.83
10099;BME280;5089;42.656;23.374;2023-02-07T09:23:34;96268.22;;;3.48;43.60
10099;BME280;5089;42.656;23.374;2023-02-07T09:26:04;96260.19;;;3.69;43.33
10099;BME280;5089;42.656;23.374;2023-02-07T09:28:31;96249.00;;;4.14;42.84
10099;BME280;5089;42.656;23.374;2023-02-07T09:30:58;96272.09;;;4.55;41.96
10099;BME280;5089;42.656;23.374;2023-02-07T09:33:25;96238.97;;;4.77;40.10
10099;BME280;5089;42.656;23.374;2023-02-07T09:35:54;96265.03;;;5.01;39.92
10099;BME280;5089;42.656;23.374;2023-02-07T09:38:22;96236.97;;;4.98;40.71
10099;BME280;5089;42.656;23.374;2023-02-07T09:40:51;96234.50;;;4.97;39.94
10099;BME280;5089;42.656;23.374;2023-02-07T09:43:28;96263.63;;;5.44;40.16
10099;BME280;5089;42.656;23.374;2023-02-07T09:46:01;96229.59;;;5.46;38.27
10099;BME280;5089;42.656;23.374;2023-02-07T09:48:36;96240.63;;;5.70;39.50
10099;BME280;5089;42.656;23.374;2023-02-07T09:51:23;96235.25;;;6.02;42.20
10099;BME280;5089;42.656;23.374;2023-02-07T09:53:53;96237.88;;;6.22;43.88
10099;BME280;5089;42.656;23.374;2023-02-07T09:56:23;96218.34;;;6.22;42.33
10099;BME280;5089;42.656;23.374;2023-02-07T09:58:59;96239.25;;;6.31;40.08
10099;BME280;5089;42.656;23.374;2023-02-07T10:01:36;96164.94;;;5.64;37.67
10099;BME280;5089;42.656;23.374;2023-02-07T10:04:20;96231.63;;;5.25;38.65
10099;BME280;5089;42.656;23.374;2023-02-07T10:06:54;96190.16;;;4.50;39.39
10099;BME280;5089;42.656;23.374;2023-02-07T10:09:25;96227.88;;;4.67;39.82
10099;BME280;5089;42.656;23.374;2023-02-07T10:11:59;96228.63;;;4.48;39.55
10099;BME280;5089;42.656;23.374;2023-02-07T10:14:40;96218.56;;;4.30;40.57
10099;BME280;5089;42.656;23.374;2023-02-07T10:17:34;96183.97;;;3.76;41.91
10099;BME280;5089;42.656;23.374;2023-02-07T10:20:23;96214.00;;;3.70;42.82
10099;BME280;5089;42.656;23.374;2023-02-07T10:22:59;96227.50;;;3.68;42.35
10099;BME280;5089;42.656;23.374;2023-02-07T10:25:35;96154.78;;;3.20;42.55
10099;BME280;5089;42.656;23.374;2023-02-07T10:31:25;96206.44;;;3.11;44.65
10099;BME280;5089;42.656;23.374;2023-02-07T10:33:54;96211.28;;;2.80;45.09
10099;BME280;5089;42.656;23.374;2023-02-07T10:36:24;96232.66;;;2.51;46.37
10099;BME280;5089;42.656;23.374;2023-02-07T10:38:58;96199.28;;;2.20;46.51
10099;BME280;5089;42.656;23.374;2023-02-07T10:41:33;96222.88;;;2.15;46.70
10099;BME280;5089;42.656;23.374;2023-02-07T10:44:02;96203.56;;;2.21;46.16
10099;BME280;5089;42.656;23.374;2023-02-07T10:46:49;96204.59;;;2.20;44.85
10099;BME280;5089;42.656;23.374;2023-02-07T10:49:21;96118.22;;;1.61;44.36
10099;BME280;5089;42.656;23.374;2023-02-07T10:51:49;96204.59;;;2.20;47.13
10099;BME280;5089;42.656;23.374;2023-02-07T10:54:18;96190.28;;;2.21;46.94
10099;BME280;5089;42.656;23.374;2023-02-07T10:56:50;96196.13;;;2.32;46.45
10099;BME280;5089;42.656;23.374;2023-02-07T10:59:32;96172.63;;;2.29;45.01
10099;BME280;5089;42.656;23.374;2023-02-07T11:02:02;96124.25;;;2.27;46.33
10099;BME280;5089;42.656;23.374;2023-02-07T11:04:49;96171.97;;;2.69;45.19
10099;BME280;5089;42.656;23.374;2023-02-07T11:07:16;96179.06;;;2.62;44.64
10099;BME280;5089;42.656;23.374;2023-02-07T11:09:43;96156.25;;;2.46;44.66
10099;BME280;5089;42.656;23.374;2023-02-07T11:12:13;96172.69;;;2.56;45.56
10099;BME280;5089;42.656;23.374;2023-02-07T11:14:58;96151.03;;;2.53;45.29
10099;BME280;5089;42.656;23.374;2023-02-07T11:17:27;96172.72;;;2.84;43.41
10099;BME280;5089;42.656;23.374;2023-02-07T11:19:55;96166.91;;;2.95;42.58
10099;BME280;5089;42.656;23.374;2023-02-07T11:22:23;96141.88;;;2.83;43.12
10099;BME280;5089;42.656;23.374;2023-02-07T11:24:52;96150.03;;;2.82;42.82
10099;BME280;5089;42.656;23.374;2023-02-07T11:27:25;96170.06;;;2.84;41.31
10099;BME280;5089;42.656;23.374;2023-02-07T11:29:55;96153.66;;;2.74;42.73
10099;BME280;5089;42.656;23.374;2023-02-07T11:32:24;96141.22;;;2.81;42.56
10099;BME280;5089;42.656;23.374;2023-02-07T11:34:55;96128.56;;;2.76;42.14
10099;BME280;5089;42.656;23.374;2023-02-07T11:37:25;96153.47;;;3.03;42.30
10099;BME280;5089;42.656;23.374;2023-02-07T11:39:54;96149.84;;;3.11;41.65
10099;BME280;5089;42.656;23.374;2023-02-07T11:42:22;96139.41;;;3.09;41.72
10099;BME280;5089;42.656;23.374;2023-02-07T11:44:50;96103.59;;;2.99;42.44
10099;BME280;5089;42.656;23.374;2023-02-07T11:47:23;96121.97;;;3.00;42.98
10099;BME280;5089;42.656;23.374;2023-02-07T11:49:55;96146.59;;;3.15;42.25
10099;BME280;5089;42.656;23.374;2023-02-07T11:52:37;96155.56;;;3.14;42.56
10099;BME280;5089;42.656;23.374;2023-02-07T11:55:08;96112.22;;;3.07;41.30
10099;BME280;5089;42.656;23.374;2023-02-07T11:57:38;96137.50;;;3.31;41.72
10099;BME280;5089;42.656;23.374;2023-02-07T12:00:12;96131.97;;;3.32;41.42
10099;BME280;5089;42.656;23.374;2023-02-07T12:02:48;96102.84;;;3.11;41.69
10099;BME280;5089;42.656;23.374;2023-02-07T12:05:21;96107.81;;;2.93;41.87
10099;BME280;5089;42.656;23.374;2023-02-07T12:07:51;96084.63;;;2.74;42.33
10099;BME280;5089;42.656;23.374;2023-02-07T12:10:21;96109.72;;;2.99;41.37
10099;BME280;5089;42.656;23.374;2023-02-07T12:12:54;96100.25;;;2.90;42.67
10099;BME280;5089;42.656;23.374;2023-02-07T12:15:28;96135.22;;;2.94;43.41
10099;BME280;5089;42.656;23.374;2023-02-07T12:18:03;96116.44;;;2.67;42.64
10099;BME280;5089;42.656;23.374;2023-02-07T12:20:34;96127.09;;;2.74;43.41
10099;BME280;5089;42.656;23.374;2023-02-07T12:23:06;96138.19;;;2.84;44.40
10099;BME280;5089;42.656;23.374;2023-02-07T12:25:39;96126.72;;;2.77;43.92
10099;BME280;5089;42.656;23.374;2023-02-07T12:28:13;96029.63;;;2.12;44.56
10099;BME280;5089;42.656;23.374;2023-02-07T12:30:44;96123.66;;;2.52;43.89
10099;BME280;5089;42.656;23.374;2023-02-07T12:33:18;96135.31;;;2.79;43.87
10099;BME280;5089;42.656;23.374;2023-02-07T12:36:07;96017.66;;;2.16;43.39
10099;BME280;5089;42.656;23.374;2023-02-07T12:38:43;96012.72;;;2.13;43.53
10099;BME280;5089;42.656;23.374;2023-02-07T12:41:32;96105.44;;;2.98;42.73
10099;BME280;5089;42.656;23.374;2023-02-07T12:44:22;96120.31;;;3.27;41.54
10099;BME280;5089;42.656;23.374;2023-02-07T12:47:11;96082.03;;;3.15;42.49
10099;BME280;5089;42.656;23.374;2023-02-07T12:50:14;96156.22;;;3.51;42.46
10099;BME280;5089;42.656;23.374;2023-02-07T12:53:18;96012.88;;;2.95;42.24
10099;BME280;5089;42.656;23.374;2023-02-07T12:56:13;96069.00;;;3.20;42.34
10099;BME280;5089;42.656;23.374;2023-02-07T12:58:56;96127.03;;;3.64;41.62
10099;BME280;5089;42.656;23.374;2023-02-07T13:01:40;96139.03;;;3.47;41.46
10099;BME280;5089;42.656;23.374;2023-02-07T13:05:14;96142.22;;;3.36;43.05
10099;BME280;5089;42.656;23.374;2023-02-07T13:08:06;96045.81;;;2.73;42.90
10099;BME280;5089;42.656;23.374;2023-02-07T13:10:48;96116.44;;;3.29;41.39
10099;BME280;5089;42.656;23.374;2023-02-07T13:13:26;96119.34;;;3.35;40.98
10099;BME280;5089;42.656;23.374;2023-02-07T13:16:26;96069.53;;;2.81;42.49
10099;BME280;5089;42.656;23.374;2023-02-07T13:19:30;96062.44;;;2.54;42.72
10099;BME280;5089;42.656;23.374;2023-02-07T13:25:25;96027.69;;;2.00;42.78
10099;BME280;5089;42.656;23.374;2023-02-07T13:27:59;96075.09;;;2.31;42.91
10099;BME280;5089;42.656;23.374;2023-02-07T13:30:35;96061.50;;;2.40;43.73
10099;BME280;5089;42.656;23.374;2023-02-07T13:33:11;96076.72;;;2.53;42.63
10099;BME280;5089;42.656;23.374;2023-02-07T13:35:44;96115.19;;;2.91;42.89
10099;BME280;5089;42.656;23.374;2023-02-07T13:38:19;96103.88;;;2.83;43.26
10099;BME280;5089;42.656;23.374;2023-02-07T13:40:55;96127.78;;;2.83;43.11
10099;BME280;5089;42.656;23.374;2023-02-07T13:43:42;96105.22;;;2.72;43.48